createdAt,value
2019-04-27T00:00:47.790Z,43.13
2019-04-27T00:03:17.909Z,43.53
2019-04-27T00:05:50.921Z,43.20
2019-04-27T00:08:21.020Z,38.37
2019-04-27T00:10:59.751Z,44.07
2019-04-27T00:13:27.730Z,45.93
2019-04-27T00:15:57.825Z,46.77
2019-04-27T00:18:34.248Z,45.63
2019-04-27T00:21:20.656Z,51.50
2019-04-27T00:23:49.197Z,50.70
2019-04-27T00:26:17.869Z,55.53
2019-04-27T00:28:46.311Z,53.27
2019-04-27T00:31:15.277Z,53.77
2019-04-27T00:33:43.796Z,55.80
2019-04-27T00:36:30.233Z,51.73
2019-04-27T00:39:18.380Z,54.80
2019-04-27T00:41:46.836Z,52.07
2019-04-27T00:44:15.353Z,54.50
2019-04-27T00:46:43.798Z,50.57
2019-04-27T00:49:13.761Z,52.93
2019-04-27T00:51:43.382Z,56.40
2019-04-27T00:54:13.577Z,57.43
2019-04-27T00:56:44.124Z,57.93
2019-04-27T00:59:30.330Z,55.67
2019-04-27T01:02:06.645Z,54.23
2019-04-27T01:04:36.168Z,52.83
2019-04-27T01:07:05.421Z,55.17
2019-04-27T01:09:34.565Z,51.03
2019-04-27T01:12:03.602Z,56.10
2019-04-27T01:14:34.142Z,63.23
2019-04-27T01:17:02.488Z,63.57
2019-04-27T01:19:31.174Z,58.97
2019-04-27T01:21:59.651Z,59.13
2019-04-27T01:24:28.719Z,54.07
2019-04-27T01:27:09.695Z,60.10
2019-04-27T01:29:41.462Z,56.57
2019-04-27T01:32:11.197Z,55.60
2019-04-27T01:34:39.747Z,57.40
2019-04-27T01:37:09.396Z,57.70
2019-04-27T01:39:38.702Z,53.90
2019-04-27T01:42:08.917Z,51.80
2019-04-27T01:44:39.257Z,57.20
2019-04-27T01:47:08.632Z,57.33
2019-04-27T01:49:39.707Z,57.90
2019-04-27T01:52:09.660Z,60.77
2019-04-27T01:54:40.836Z,52.73
2019-04-27T01:57:10.213Z,48.47
2019-04-27T01:59:38.824Z,52.30
2019-04-27T02:02:12.037Z,52.70
2019-04-27T02:04:59.365Z,57.77
2019-04-27T02:07:29.941Z,48.37
2019-04-27T02:09:58.967Z,52.30
2019-04-27T02:12:29.157Z,48.20
2019-04-27T02:14:58.895Z,51.10
2019-04-27T02:17:28.809Z,49.73
2019-04-27T02:19:57.383Z,47.03
2019-04-27T02:22:25.833Z,51.93
2019-04-27T02:24:54.284Z,51.87
2019-04-27T02:27:24.377Z,51.37
2019-04-27T02:30:11.638Z,54.53
2019-04-27T02:32:59.331Z,57.53
2019-04-27T02:35:30.053Z,50.53
2019-04-27T02:38:00.398Z,56.43
2019-04-27T02:40:51.509Z,58.33
2019-04-27T02:43:22.347Z,57.33
2019-04-27T02:45:50.800Z,62.63
2019-04-27T02:48:20.080Z,53.20
2019-04-27T02:50:50.382Z,52.17
2019-04-27T02:53:20.560Z,54.73
2019-04-27T02:55:49.984Z,53.73
2019-04-27T02:58:21.532Z,51.37
2019-04-27T03:00:50.232Z,51.13
2019-04-27T03:03:20.414Z,47.97
2019-04-27T03:05:50.358Z,52.07
2019-04-27T03:08:20.075Z,52.87
2019-04-27T03:10:50.350Z,53.57
2019-04-27T03:13:26.232Z,51.97
2019-04-27T03:16:13.438Z,54.63
2019-04-27T03:18:46.891Z,52.73
2019-04-27T03:21:20.206Z,50.00
2019-04-27T03:23:50.131Z,48.00
2019-04-27T03:26:22.749Z,56.37
2019-04-27T03:28:51.904Z,53.40
2019-04-27T03:31:21.649Z,52.83
2019-04-27T03:33:57.909Z,55.00
2019-04-27T03:36:21.814Z,57.33
2019-04-27T03:38:50.741Z,53.27
2019-04-27T03:41:19.401Z,53.20
2019-04-27T03:43:50.261Z,55.83
2019-04-27T03:46:20.482Z,51.20
2019-04-27T03:48:49.760Z,51.73
2019-04-27T03:51:26.073Z,55.40
2019-04-27T03:54:00.391Z,53.63
2019-04-27T03:56:33.861Z,55.63
2019-04-27T03:59:04.084Z,55.20
2019-04-27T04:01:32.624Z,57.87
2019-04-27T04:04:01.050Z,52.93
2019-04-27T04:06:29.790Z,55.53
2019-04-27T04:09:00.232Z,57.57
2019-04-27T04:11:30.436Z,60.97
2019-04-27T04:14:10.121Z,52.63
2019-04-27T04:16:43.646Z,54.63
2019-04-27T04:19:12.346Z,52.07
2019-04-27T04:21:41.369Z,55.60
2019-04-27T04:24:12.238Z,57.10
2019-04-27T04:26:40.482Z,57.07
2019-04-27T04:29:10.322Z,59.77
2019-04-27T04:31:40.540Z,56.30
2019-04-27T04:34:11.926Z,57.83
2019-04-27T04:36:42.535Z,51.63
2019-04-27T04:39:12.319Z,56.10
2019-04-27T04:41:50.980Z,48.47
2019-04-27T04:44:36.575Z,52.00
2019-04-27T04:47:10.363Z,51.97
2019-04-27T04:49:39.815Z,50.13
2019-04-27T04:52:09.623Z,51.80
2019-04-27T04:54:40.725Z,50.40
2019-04-27T04:57:09.332Z,54.03
2019-04-27T04:59:39.029Z,57.43
2019-04-27T05:02:10.348Z,56.60
2019-04-27T05:04:39.056Z,52.03
2019-04-27T05:07:09.252Z,53.33
2019-04-27T05:09:39.507Z,52.70
2019-04-27T05:12:08.894Z,49.93
2019-04-27T05:14:38.889Z,47.33
2019-04-27T05:17:09.313Z,48.63
2019-04-27T05:19:38.952Z,51.60
2019-04-27T05:22:09.216Z,48.33
2019-04-27T05:24:39.232Z,46.13
2019-04-27T05:27:09.226Z,43.30
2019-04-27T05:29:38.952Z,51.23
2019-04-27T05:32:09.130Z,50.03
2019-04-27T05:34:39.319Z,50.40
2019-04-27T05:37:08.919Z,45.57
2019-04-27T05:39:38.946Z,48.40
2019-04-27T05:42:11.013Z,46.20
2019-04-27T05:45:06.162Z,43.50
2019-04-27T05:47:39.342Z,40.57
2019-04-27T05:50:13.355Z,41.43
2019-04-27T05:52:41.837Z,39.47
2019-04-27T05:55:10.704Z,44.13
2019-04-27T05:57:39.450Z,43.53
2019-04-27T06:00:09.819Z,38.70
2019-04-27T06:02:39.825Z,38.40
2019-04-27T06:05:10.329Z,42.53
2019-04-27T06:07:39.591Z,35.57
2019-04-27T06:10:09.585Z,35.50
2019-04-27T06:12:39.593Z,35.13
2019-04-27T06:15:09.782Z,37.60
2019-04-27T06:17:39.365Z,28.70
2019-04-27T06:20:09.275Z,26.83
2019-04-27T06:22:39.038Z,25.47
2019-04-27T06:25:11.387Z,27.17
2019-04-27T06:27:39.780Z,27.63
2019-04-27T06:30:09.411Z,23.60
2019-04-27T06:32:39.573Z,24.13
2019-04-27T06:35:12.389Z,20.50
2019-04-27T06:37:40.174Z,25.70
2019-04-27T06:40:09.776Z,20.40
2019-04-27T06:42:39.848Z,21.90
2019-04-27T06:45:10.065Z,24.27
2019-04-27T06:47:39.677Z,20.53
2019-04-27T06:50:08.917Z,21.03
2019-04-27T06:52:39.021Z,19.77
2019-04-27T06:55:09.225Z,23.53
2019-04-27T06:57:39.116Z,19.10
2019-04-27T07:00:19.013Z,18.97
2019-04-27T07:02:49.292Z,20.47
2019-04-27T07:05:18.524Z,18.37
2019-04-27T07:07:48.994Z,17.90
2019-04-27T07:10:18.605Z,14.43
2019-04-27T07:12:49.034Z,12.83
2019-04-27T07:15:20.134Z,13.10
2019-04-27T07:17:48.773Z,14.17
2019-04-27T07:20:18.895Z,13.70
2019-04-27T07:22:49.524Z,14.73
2019-04-27T07:25:18.891Z,14.70
2019-04-27T07:27:49.270Z,12.80
2019-04-27T07:30:18.981Z,11.97
2019-04-27T07:32:48.829Z,11.03
2019-04-27T07:35:17.556Z,8.83
2019-04-27T07:37:45.987Z,8.80
2019-04-27T07:40:14.638Z,10.00
2019-04-27T07:42:45.962Z,6.87
2019-04-27T07:45:16.419Z,11.90
2019-04-27T07:47:46.055Z,10.47
2019-04-27T07:50:14.967Z,8.47
2019-04-27T07:52:43.393Z,12.57
2019-04-27T07:55:12.020Z,7.67
2019-04-27T07:57:40.530Z,12.40
2019-04-27T08:00:09.674Z,14.33
2019-04-27T08:02:39.014Z,12.43
2019-04-27T08:05:09.366Z,11.20
2019-04-27T08:07:39.154Z,11.67
2019-04-27T08:10:09.636Z,8.43
2019-04-27T08:12:38.649Z,7.80
2019-04-27T08:15:08.909Z,7.33
2019-04-27T08:17:38.140Z,7.47
2019-04-27T08:20:09.237Z,7.70
2019-04-27T08:22:38.929Z,7.50
2019-04-27T08:25:09.388Z,7.10
2019-04-27T08:27:45.440Z,9.27
2019-04-27T08:30:19.443Z,9.17
2019-04-27T08:32:55.571Z,12.57
2019-04-27T08:35:23.991Z,7.83
2019-04-27T08:37:52.483Z,8.43
2019-04-27T08:40:21.728Z,9.07
2019-04-27T08:42:51.259Z,8.97
2019-04-27T08:45:20.100Z,7.40
2019-04-27T08:47:49.731Z,8.77
2019-04-27T08:50:19.144Z,7.73
2019-04-27T08:52:49.882Z,7.50
2019-04-27T08:55:19.591Z,6.97
2019-04-27T08:57:48.871Z,7.73
2019-04-27T09:00:19.771Z,10.57
2019-04-27T09:02:50.342Z,7.30
2019-04-27T09:05:21.142Z,6.97
2019-04-27T09:08:09.669Z,8.27
2019-04-27T09:10:45.435Z,7.70
2019-04-27T09:13:29.211Z,6.80
2019-04-27T09:16:02.418Z,7.30
2019-04-27T09:18:32.704Z,9.43
2019-04-27T09:21:02.930Z,7.33
2019-04-27T09:23:31.490Z,4.83
2019-04-27T09:26:00.013Z,5.17
2019-04-27T09:28:29.425Z,3.43
2019-04-27T09:30:58.922Z,3.10
2019-04-27T09:33:27.525Z,3.17
2019-04-27T09:35:56.709Z,3.10
2019-04-27T09:38:26.457Z,4.13
2019-04-27T09:40:55.907Z,6.70
2019-04-27T09:43:28.905Z,3.83
2019-04-27T09:45:57.334Z,2.63
2019-04-27T09:48:26.097Z,3.30
2019-04-27T09:50:56.022Z,2.77
2019-04-27T09:53:24.719Z,1.73
2019-04-27T09:55:53.174Z,4.70
2019-04-27T09:58:21.596Z,2.03
2019-04-27T10:00:50.035Z,2.40
2019-04-27T10:03:18.622Z,3.43
2019-04-27T10:05:47.179Z,2.30
2019-04-27T10:08:16.960Z,3.83
2019-04-27T10:10:46.419Z,10.43
2019-04-27T10:13:15.788Z,2.97
2019-04-27T10:15:45.947Z,5.60
2019-04-27T10:18:16.339Z,6.97
2019-04-27T10:20:56.898Z,9.20
2019-04-27T10:23:15.027Z,3.13
2019-04-27T10:25:43.449Z,2.77
2019-04-27T10:28:11.886Z,3.77
2019-04-27T10:30:40.310Z,4.07
2019-04-27T10:33:08.839Z,2.50
2019-04-27T10:35:37.356Z,3.00
2019-04-27T10:38:05.764Z,8.33
2019-04-27T10:40:34.191Z,3.40
2019-04-27T10:43:02.659Z,5.63
2019-04-27T10:45:31.139Z,4.53
2019-04-27T10:47:59.572Z,2.67
2019-04-27T10:50:28.102Z,3.13
2019-04-27T10:52:59.242Z,1.63
2019-04-27T10:55:26.742Z,6.53
2019-04-27T10:57:55.146Z,2.67
2019-04-27T11:00:25.724Z,3.43
2019-04-27T11:02:56.584Z,4.13
2019-04-27T11:05:32.465Z,2.30
2019-04-27T11:08:00.893Z,3.30
2019-04-27T11:10:29.675Z,3.77
2019-04-27T11:12:58.285Z,4.20
2019-04-27T11:15:26.725Z,7.43
2019-04-27T11:17:56.126Z,4.07
2019-04-27T11:20:27.483Z,4.57
2019-04-27T11:23:06.621Z,7.83
2019-04-27T11:25:26.398Z,4.33
2019-04-27T11:27:55.916Z,3.50
2019-04-27T11:30:25.739Z,3.67
2019-04-27T11:32:56.749Z,2.40
2019-04-27T11:35:35.656Z,3.10
2019-04-27T11:38:05.599Z,2.03
2019-04-27T11:40:34.281Z,1.50
2019-04-27T11:43:02.713Z,1.53
2019-04-27T11:45:31.117Z,1.87
2019-04-27T11:47:59.560Z,3.33
2019-04-27T11:50:28.125Z,4.07
2019-04-27T11:52:56.769Z,4.63
2019-04-27T11:55:27.188Z,2.90
2019-04-27T11:57:55.970Z,2.07
2019-04-27T12:00:25.501Z,5.03
2019-04-27T12:02:54.469Z,3.20
2019-04-27T12:05:23.043Z,3.67
2019-04-27T12:07:51.481Z,2.07
2019-04-27T12:10:21.332Z,1.47
2019-04-27T12:12:49.781Z,1.60
2019-04-27T12:15:19.874Z,3.27
2019-04-27T12:17:48.287Z,3.97
2019-04-27T12:20:17.928Z,4.47
2019-04-27T12:22:46.687Z,3.03
2019-04-27T12:25:15.955Z,1.93
2019-04-27T12:28:02.535Z,2.30
2019-04-27T12:30:32.769Z,2.37
2019-04-27T12:33:01.201Z,2.60
2019-04-27T12:35:29.629Z,3.77
2019-04-27T12:37:58.618Z,2.50
2019-04-27T12:40:27.163Z,2.47
2019-04-27T12:42:55.563Z,1.60
2019-04-27T12:45:24.118Z,1.37
2019-04-27T12:47:52.571Z,1.50
2019-04-27T12:50:21.427Z,1.70
2019-04-27T12:52:57.365Z,2.57
2019-04-27T12:55:27.875Z,2.60
2019-04-27T12:58:03.386Z,3.00
2019-04-27T13:00:33.661Z,4.40
2019-04-27T13:03:02.075Z,3.90
2019-04-27T13:05:30.801Z,2.10
2019-04-27T13:07:59.828Z,3.03
2019-04-27T13:10:28.668Z,2.67
2019-04-27T13:12:57.062Z,4.73
2019-04-27T13:15:26.485Z,2.23
2019-04-27T13:17:58.759Z,4.27
2019-04-27T13:20:27.615Z,4.90
2019-04-27T13:22:56.050Z,3.33
2019-04-27T13:25:24.621Z,2.33
2019-04-27T13:27:53.084Z,4.07
2019-04-27T13:30:22.049Z,3.53
2019-04-27T13:32:50.497Z,6.10
2019-04-27T13:35:19.013Z,2.67
2019-04-27T13:37:47.428Z,2.37
2019-04-27T13:40:17.460Z,4.50
2019-04-27T13:42:47.611Z,3.23
2019-04-27T13:45:35.862Z,2.63
2019-04-27T13:48:18.371Z,3.37
2019-04-27T13:50:51.187Z,5.37
2019-04-27T13:53:19.699Z,2.80
2019-04-27T13:55:48.595Z,2.37
2019-04-27T13:58:17.215Z,2.03
2019-04-27T14:00:45.996Z,4.37
2019-04-27T14:03:16.769Z,1.30
2019-04-27T14:05:44.620Z,1.80
2019-04-27T14:08:13.134Z,3.67
2019-04-27T14:10:41.693Z,5.33
2019-04-27T14:13:11.037Z,4.37
2019-04-27T14:15:40.033Z,1.17
2019-04-27T14:18:08.557Z,0.93
2019-04-27T14:20:38.950Z,1.43
2019-04-27T14:23:18.809Z,1.90
2019-04-27T14:25:47.485Z,2.93
2019-04-27T14:28:15.983Z,1.40
2019-04-27T14:30:45.076Z,1.80
2019-04-27T14:33:13.896Z,2.50
2019-04-27T14:35:42.661Z,3.27
2019-04-27T14:38:11.449Z,2.53
2019-04-27T14:40:40.442Z,1.47
2019-04-27T14:43:09.282Z,1.27
2019-04-27T14:45:39.725Z,1.60
2019-04-27T14:48:08.424Z,2.80
2019-04-27T14:50:38.641Z,1.50
2019-04-27T14:53:08.844Z,2.80
2019-04-27T14:55:39.277Z,1.70
2019-04-27T14:58:08.753Z,1.80
2019-04-27T15:00:38.490Z,1.97
2019-04-27T15:03:07.417Z,2.23
2019-04-27T15:05:36.301Z,2.17
2019-04-27T15:08:08.190Z,3.03
2019-04-27T15:10:36.133Z,2.37
2019-04-27T15:13:08.265Z,2.07
2019-04-27T15:16:13.047Z,2.13
2019-04-27T15:18:43.821Z,1.80
2019-04-27T15:21:12.690Z,2.40
2019-04-27T15:23:41.504Z,3.43
2019-04-27T15:26:10.536Z,2.40
2019-04-27T15:28:44.827Z,2.20
2019-04-27T15:31:29.433Z,3.80
2019-04-27T15:34:15.923Z,1.93
2019-04-27T15:37:01.976Z,2.57
2019-04-27T15:39:44.056Z,3.83
2019-04-27T15:42:18.910Z,3.80
2019-04-27T15:44:49.942Z,2.33
2019-04-27T15:47:20.158Z,2.67
2019-04-27T15:49:53.091Z,2.97
2019-04-27T15:52:18.514Z,3.43
2019-04-27T15:54:48.327Z,4.57
2019-04-27T15:57:19.080Z,3.70
2019-04-27T15:59:48.235Z,5.13
2019-04-27T16:02:18.570Z,6.33
2019-04-27T16:04:49.967Z,6.47
2019-04-27T16:07:24.655Z,5.23
2019-04-27T16:09:48.738Z,6.13
2019-04-27T16:12:18.215Z,6.97
2019-04-27T16:14:47.922Z,4.43
2019-04-27T16:17:18.035Z,5.93
2019-04-27T16:19:50.234Z,7.67
2019-04-27T16:22:18.401Z,6.13
2019-04-27T16:24:49.437Z,4.50
2019-04-27T16:27:18.013Z,6.70
2019-04-27T16:29:49.108Z,5.10
2019-04-27T16:32:18.047Z,7.43
2019-04-27T16:34:47.871Z,8.43
2019-04-27T16:37:22.260Z,5.43
2019-04-27T16:39:49.535Z,5.13
2019-04-27T16:42:18.790Z,6.50
2019-04-27T16:44:51.291Z,5.93
2019-04-27T16:47:24.174Z,6.50
2019-04-27T16:49:48.453Z,6.00
2019-04-27T16:52:19.208Z,4.03
2019-04-27T16:54:56.292Z,3.33
2019-04-27T16:57:19.696Z,1.60
2019-04-27T16:59:54.879Z,1.93
2019-04-27T17:02:23.662Z,2.87
2019-04-27T17:04:52.788Z,2.97
2019-04-27T17:07:19.210Z,2.40
2019-04-27T17:09:49.440Z,2.70
2019-04-27T17:12:23.876Z,2.33
2019-04-27T17:15:10.636Z,2.70
2019-04-27T17:17:42.796Z,3.80
2019-04-27T17:20:12.948Z,5.07
2019-04-27T17:22:40.637Z,5.47
2019-04-27T17:25:09.218Z,3.20
2019-04-27T17:27:39.312Z,7.00
2019-04-27T17:30:09.686Z,6.00
2019-04-27T17:32:42.875Z,6.07
2019-04-27T17:35:14.722Z,6.20
2019-04-27T17:37:41.474Z,9.40
2019-04-27T17:40:09.973Z,5.00
2019-04-27T17:42:38.504Z,7.50
2019-04-27T17:45:08.896Z,5.47
2019-04-27T17:47:38.895Z,9.90
2019-04-27T17:50:09.310Z,6.60
2019-04-27T17:52:39.694Z,6.10
2019-04-27T17:55:08.185Z,8.13
2019-04-27T17:57:39.608Z,7.70
2019-04-27T18:00:11.018Z,9.97
2019-04-27T18:02:42.429Z,7.13
2019-04-27T18:05:13.707Z,8.47
2019-04-27T18:07:44.095Z,5.57
2019-04-27T18:10:13.415Z,5.47
2019-04-27T18:12:44.604Z,6.43
2019-04-27T18:15:14.586Z,6.00
2019-04-27T18:17:48.220Z,6.87
2019-04-27T18:20:14.976Z,9.67
2019-04-27T18:22:45.501Z,5.23
2019-04-27T18:25:14.053Z,6.67
2019-04-27T18:27:52.975Z,7.30
2019-04-27T18:30:28.228Z,9.00
2019-04-27T18:32:59.406Z,7.07
2019-04-27T18:35:29.488Z,6.90
2019-04-27T18:37:58.404Z,9.27
2019-04-27T18:40:32.125Z,7.13
2019-04-27T18:43:01.956Z,9.53
2019-04-27T18:45:28.511Z,5.80
2019-04-27T18:47:59.403Z,8.33
2019-04-27T18:50:43.660Z,5.83
2019-04-27T18:53:23.191Z,9.90
2019-04-27T18:55:49.992Z,8.43
2019-04-27T18:58:18.854Z,6.57
2019-04-27T19:00:48.447Z,11.77
2019-04-27T19:03:18.375Z,11.57
2019-04-27T19:05:48.110Z,10.00
2019-04-27T19:08:29.959Z,9.47
2019-04-27T19:11:00.069Z,7.17
2019-04-27T19:13:28.529Z,8.67
2019-04-27T19:15:57.932Z,8.17
2019-04-27T19:18:27.145Z,5.97
2019-04-27T19:20:55.591Z,8.00
2019-04-27T19:23:24.870Z,10.00
2019-04-27T19:25:58.532Z,9.93
2019-04-27T19:28:41.007Z,6.93
2019-04-27T19:31:11.146Z,7.70
2019-04-27T19:33:39.809Z,7.43
2019-04-27T19:36:08.819Z,7.00
2019-04-27T19:38:39.182Z,7.17
2019-04-27T19:41:09.709Z,7.90
2019-04-27T19:43:38.422Z,8.87
2019-04-27T19:46:10.231Z,9.47
2019-04-27T19:48:38.682Z,9.10
2019-04-27T19:51:08.970Z,9.80
2019-04-27T19:53:39.279Z,10.27
2019-04-27T19:56:07.486Z,8.67
2019-04-27T19:58:39.994Z,10.67
2019-04-27T20:01:14.223Z,10.73
2019-04-27T20:03:45.427Z,8.87
2019-04-27T20:06:13.852Z,11.37
2019-04-27T20:08:43.962Z,11.80
2019-04-27T20:11:12.379Z,11.00
2019-04-27T20:13:40.864Z,11.73
2019-04-27T20:16:10.836Z,10.63
2019-04-27T20:18:41.164Z,11.27
2019-04-27T20:21:10.574Z,12.13
2019-04-27T20:23:40.808Z,11.80
2019-04-27T20:26:09.300Z,10.40
2019-04-27T20:28:38.651Z,14.23
2019-04-27T20:31:07.342Z,10.67
2019-04-27T20:33:35.818Z,10.10
2019-04-27T20:36:04.359Z,11.23
2019-04-27T20:38:32.790Z,11.90
2019-04-27T20:41:01.422Z,9.23
2019-04-27T20:43:31.461Z,12.53
2019-04-27T20:46:00.932Z,13.77
2019-04-27T20:48:34.438Z,11.17
2019-04-27T20:51:05.591Z,8.00
2019-04-27T20:53:41.813Z,11.33
2019-04-27T20:56:09.919Z,9.23
2019-04-27T20:58:38.510Z,12.30
2019-04-27T21:01:07.171Z,10.57
2019-04-27T21:03:48.825Z,11.70
2019-04-27T21:06:18.945Z,9.37
2019-04-27T21:08:47.666Z,12.83
2019-04-27T21:11:16.113Z,8.37
2019-04-27T21:13:44.578Z,11.93
2019-04-27T21:16:13.029Z,10.43
2019-04-27T21:18:41.992Z,8.07
2019-04-27T21:21:11.412Z,8.60
2019-04-27T21:23:41.406Z,12.10
2019-04-27T21:26:10.114Z,8.90
2019-04-27T21:28:38.528Z,12.20
2019-04-27T21:31:07.115Z,12.77
2019-04-27T21:33:35.620Z,12.73
2019-04-27T21:36:04.126Z,13.97
2019-04-27T21:38:32.564Z,11.20
2019-04-27T21:41:01.021Z,8.77
2019-04-27T21:43:29.587Z,12.20
2019-04-27T21:45:58.103Z,9.97
2019-04-27T21:48:26.626Z,11.63
2019-04-27T21:50:55.079Z,9.90
2019-04-27T21:53:31.349Z,14.07
2019-04-27T21:56:01.566Z,13.00
2019-04-27T21:58:31.334Z,11.83
2019-04-27T22:01:03.388Z,10.83
2019-04-27T22:03:31.801Z,9.60
2019-04-27T22:06:01.765Z,11.90
2019-04-27T22:08:31.834Z,10.33
2019-04-27T22:11:01.552Z,11.93
2019-04-27T22:13:31.167Z,12.00
2019-04-27T22:15:59.829Z,11.23
2019-04-27T22:18:28.264Z,9.27
2019-04-27T22:20:56.762Z,11.23
2019-04-27T22:23:26.893Z,11.53
2019-04-27T22:25:55.335Z,13.10
2019-04-27T22:28:24.185Z,8.87
2019-04-27T22:30:52.622Z,8.87
2019-04-27T22:33:21.494Z,9.73
2019-04-27T22:35:51.747Z,9.07
2019-04-27T22:38:20.447Z,11.60
2019-04-27T22:40:53.204Z,12.33
2019-04-27T22:43:38.011Z,12.13
2019-04-27T22:46:08.173Z,9.40
2019-04-27T22:48:36.627Z,15.07
2019-04-27T22:51:05.136Z,13.10
2019-04-27T22:53:33.676Z,11.53
2019-04-27T22:56:13.495Z,13.87
2019-04-27T22:58:59.942Z,13.77
2019-04-27T23:01:22.008Z,12.73
2019-04-27T23:03:52.070Z,9.80
2019-04-27T23:06:21.636Z,9.33
2019-04-27T23:08:51.523Z,11.07
2019-04-27T23:11:21.183Z,12.67
2019-04-27T23:13:50.655Z,13.10
2019-04-27T23:16:21.973Z,11.20
2019-04-27T23:18:51.525Z,11.17
2019-04-27T23:21:20.902Z,10.40
2019-04-27T23:23:49.364Z,16.60
2019-04-27T23:26:18.074Z,17.07
2019-04-27T23:28:46.498Z,16.33
2019-04-27T23:31:20.993Z,12.27
2019-04-27T23:33:51.782Z,11.53
2019-04-27T23:36:21.603Z,12.77
2019-04-27T23:38:50.903Z,10.97
2019-04-27T23:41:19.620Z,15.87
2019-04-27T23:43:48.367Z,10.53
2019-04-27T23:46:16.961Z,15.33
2019-04-27T23:48:45.352Z,12.53
2019-04-27T23:51:15.431Z,12.17
2019-04-27T23:53:43.913Z,11.60
2019-04-27T23:56:12.349Z,11.20
2019-04-27T23:58:40.840Z,15.00
